Time;durP1;ratioP1;P1;durP2;ratioP2;P2;SDS_P1;SDS_P2;PMS_P1;PMS_P2;Temp;Humidity;BMP_temperature;BMP_pressure;BME280_temperature;BME280_humidity;BME280_pressure;Samples;Min_cycle;Max_cycle;Signal;HPM_P1;HPM_P2
2023/03/30 00:00:19;;;;;;;11.32;6.72;;;11.10;99.90;;;;;;6300205;22;20023;-78
2023/03/30 00:02:49;;;;;;;12.88;6.10;;;11.20;99.90;;;;;;6300211;22;20011;-78
2023/03/30 00:05:16;;;;;;;11.70;6.40;;;11.20;99.90;;;;;;6302216;22;20038;-79
2023/03/30 00:07:44;;;;;;;10.48;6.15;;;11.30;99.90;;;;;;6302430;22;20003;-78
2023/03/30 00:10:16;;;;;;;7.18;5.63;;;11.30;99.90;;;;;;6302713;22;20007;-78
2023/03/30 00:12:43;;;;;;;8.27;6.30;;;11.30;99.90;;;;;;6300042;22;20019;-77
2023/03/30 00:15:11;;;;;;;11.00;6.47;;;11.30;99.90;;;;;;6302023;22;20011;-78
2023/03/30 00:17:37;;;;;;;14.00;6.38;;;11.30;99.90;;;;;;6300220;22;20019;-78
2023/03/30 00:20:13;;;;;;;13.48;6.78;;;11.40;99.90;;;;;;6299978;22;20799;-78
2023/03/30 00:22:43;;;;;;;11.80;6.25;;;11.40;99.90;;;;;;6299468;22;20019;-78
2023/03/30 00:25:12;;;;;;;10.43;6.53;;;11.40;99.90;;;;;;6299981;22;20023;-78
2023/03/30 00:27:39;;;;;;;10.70;6.53;;;11.40;99.90;;;;;;6299705;22;20099;-78
2023/03/30 00:30:07;;;;;;;9.38;5.95;;;11.40;99.90;;;;;;6301977;22;20043;-78
2023/03/30 00:32:33;;;;;;;10.10;5.95;;;11.40;99.90;;;;;;6301558;22;20381;-76
2023/03/30 00:35:00;;;;;;;14.98;7.07;;;11.50;99.90;;;;;;6302264;22;20019;-77
2023/03/30 00:37:26;;;;;;;14.23;6.07;;;11.50;99.90;;;;;;6301774;22;20051;-75
2023/03/30 00:39:52;;;;;;;7.32;5.53;;;11.40;99.90;;;;;;6302049;22;20128;-78
2023/03/30 00:42:20;;;;;;;7.72;5.22;;;11.40;99.90;;;;;;6301683;22;20007;-78
2023/03/30 00:45:20;;;;;;;9.65;6.00;;;11.40;99.90;;;;;;6299176;22;20723;-78
2023/03/30 00:47:55;;;;;;;13.60;5.97;;;11.40;99.90;;;;;;6301091;22;20295;-78
2023/03/30 00:50:24;;;;;;;9.82;5.60;;;11.40;99.90;;;;;;6299727;22;20026;-78
2023/03/30 00:52:54;;;;;;;11.75;5.88;;;11.40;99.90;;;;;;6301265;22;20712;-78
2023/03/30 00:55:22;;;;;;;11.00;5.60;;;11.30;99.90;;;;;;6299392;22;20019;-79
2023/03/30 00:57:50;;;;;;;8.77;5.85;;;11.30;99.90;;;;;;6301316;22;20015;-79
2023/03/30 01:00:17;;;;;;;8.68;5.30;;;11.40;99.90;;;;;;6301100;22;20337;-78
2023/03/30 01:02:49;;;;;;;9.88;5.50;;;11.40;99.90;;;;;;6299468;22;20022;-79
2023/03/30 01:05:15;;;;;;;15.32;5.00;;;11.30;99.90;;;;;;6299771;22;20295;-78
2023/03/30 01:07:45;;;;;;;10.38;5.18;;;11.30;99.90;;;;;;6301325;22;20023;-78
2023/03/30 01:10:11;;;;;;;9.57;5.20;;;11.40;99.90;;;;;;6301461;22;20156;-78
2023/03/30 01:12:37;;;;;;;8.77;4.97;;;11.40;99.90;;;;;;6301675;22;20019;-77
2023/03/30 01:15:06;;;;;;;9.90;5.65;;;11.30;99.90;;;;;;6299534;22;20026;-78
2023/03/30 01:17:48;;;;;;;9.38;5.28;;;11.40;99.90;;;;;;6301120;22;20461;-78
2023/03/30 01:20:46;;;;;;;11.45;5.30;;;11.40;99.90;;;;;;6301135;22;20076;-79
2023/03/30 01:23:41;;;;;;;8.18;5.20;;;11.40;99.90;;;;;;6300952;22;20022;-78
2023/03/30 01:26:58;;;;;;;11.95;4.95;;;11.40;99.90;;;;;;6299307;22;20453;-77
2023/03/30 01:30:02;;;;;;;9.00;4.93;;;11.40;99.90;;;;;;6282705;22;20019;-76
2023/03/30 01:32:51;;;;;;;9.00;4.78;;;11.40;99.90;;;;;;6283823;22;20461;-78
2023/03/30 01:35:47;;;;;;;9.48;5.00;;;11.40;99.90;;;;;;6299264;22;20023;-78
2023/03/30 01:38:31;;;;;;;8.95;4.47;;;11.40;99.90;;;;;;6299527;22;20388;-78
2023/03/30 01:41:02;;;;;;;9.52;5.57;;;11.40;99.90;;;;;;6302314;22;20011;-78
2023/03/30 01:43:40;;;;;;;9.70;4.82;;;11.40;99.90;;;;;;6301891;22;20011;-77
2023/03/30 01:46:29;;;;;;;11.57;4.72;;;11.40;99.90;;;;;;6273438;22;20102;-77
2023/03/30 01:49:27;;;;;;;10.88;5.55;;;11.40;99.90;;;;;;6299416;22;20011;-77
2023/03/30 01:52:24;;;;;;;7.80;4.88;;;11.40;99.90;;;;;;6299732;22;20015;-78
2023/03/30 01:55:18;;;;;;;10.57;5.35;;;11.40;99.90;;;;;;6299886;22;20096;-77
2023/03/30 01:58:13;;;;;;;9.65;5.47;;;11.40;99.90;;;;;;6299217;22;20019;-77
2023/03/30 02:00:40;;;;;;;10.00;4.82;;;11.40;99.90;;;;;;6285438;22;20053;-78
2023/03/30 02:03:15;;;;;;;7.25;4.78;;;11.40;99.90;;;;;;6300798;22;20015;-77
2023/03/30 02:05:45;;;;;;;7.50;5.10;;;11.50;99.90;;;;;;6300961;22;20008;-77
2023/03/30 02:08:17;;;;;;;6.20;4.80;;;11.50;99.90;;;;;;6299121;22;20059;-78
2023/03/30 02:10:45;;;;;;;8.13;5.03;;;11.50;99.90;;;;;;6298890;22;20046;-78
2023/03/30 02:13:12;;;;;;;11.10;5.03;;;11.50;99.90;;;;;;6299134;22;20030;-76
2023/03/30 02:15:42;;;;;;;9.18;5.10;;;11.50;99.90;;;;;;6299145;22;20036;-78
2023/03/30 02:18:09;;;;;;;7.93;5.68;;;11.50;99.90;;;;;;6299238;22;20086;-78
2023/03/30 02:20:35;;;;;;;9.18;4.40;;;11.50;99.90;;;;;;6298781;22;20341;-77
2023/03/30 02:23:04;;;;;;;10.25;4.60;;;11.60;99.90;;;;;;6300718;22;20015;-78
2023/03/30 02:25:31;;;;;;;13.82;4.35;;;11.60;99.90;;;;;;6301106;22;20140;-77
2023/03/30 02:27:57;;;;;;;7.25;4.30;;;11.60;99.90;;;;;;6300676;22;20113;-78
2023/03/30 02:30:23;;;;;;;8.02;4.20;;;11.60;99.90;;;;;;6298628;22;20350;-78
2023/03/30 02:32:52;;;;;;;7.47;4.82;;;11.60;99.90;;;;;;6298397;22;20041;-78
2023/03/30 02:35:27;;;;;;;7.70;4.50;;;11.70;99.90;;;;;;6298558;22;20019;-77
2023/03/30 02:38:17;;;;;;;10.90;4.10;;;11.70;99.90;;;;;;6298437;22;20023;-77
2023/03/30 02:41:05;;;;;;;6.93;4.30;;;11.70;99.90;;;;;;6298512;22;20067;-78
2023/03/30 02:43:43;;;;;;;7.78;4.35;;;11.70;99.90;;;;;;6298816;22;20485;-78
2023/03/30 02:46:35;;;;;;;10.20;3.90;;;11.70;99.90;;;;;;6326962;22;20022;-78
2023/03/30 02:49:47;;;;;;;10.70;4.35;;;11.70;99.90;;;;;;6331964;22;20137;-79
2023/03/30 02:52:25;;;;;;;13.15;4.35;;;11.70;99.90;;;;;;6280968;22;20023;-78
2023/03/30 02:55:13;;;;;;;8.32;4.35;;;11.70;99.90;;;;;;6303779;22;20097;-78
2023/03/30 02:58:13;;;;;;;4.82;3.72;;;11.70;99.90;;;;;;6304179;22;20015;-79
2023/03/30 03:01:08;;;;;;;7.10;4.43;;;11.70;99.90;;;;;;6286739;22;20022;-77
2023/03/30 03:03:42;;;;;;;5.07;3.70;;;11.70;99.90;;;;;;6331879;22;20019;-77
2023/03/30 03:06:08;;;;;;;10.75;4.03;;;11.60;99.90;;;;;;6303740;22;20041;-79
2023/03/30 03:08:36;;;;;;;7.30;4.50;;;11.60;99.90;;;;;;6303756;22;20484;-78
2023/03/30 03:11:02;;;;;;;7.25;3.80;;;11.60;99.90;;;;;;6332193;22;20015;-78
2023/03/30 03:13:28;;;;;;;8.63;3.78;;;11.50;99.90;;;;;;6305900;22;20053;-78
2023/03/30 03:15:57;;;;;;;8.10;4.00;;;11.50;99.90;;;;;;6333567;22;20026;-78
2023/03/30 03:18:23;;;;;;;7.80;4.32;;;11.50;99.90;;;;;;6334336;22;20686;-78
2023/03/30 03:20:50;;;;;;;9.50;4.53;;;11.50;99.90;;;;;;6334082;22;20034;-78
2023/03/30 03:23:15;;;;;;;7.97;3.75;;;11.40;99.90;;;;;;6306356;22;20021;-79
2023/03/30 03:25:41;;;;;;;8.68;4.53;;;11.40;99.90;;;;;;6305876;22;20014;-78
2023/03/30 03:28:07;;;;;;;7.55;4.20;;;11.40;99.90;;;;;;6334003;22;20006;-77
2023/03/30 03:30:33;;;;;;;9.65;4.07;;;11.50;99.90;;;;;;6305685;22;20460;-78
2023/03/30 03:33:00;;;;;;;8.02;4.32;;;11.50;99.90;;;;;;6305813;22;20119;-78
2023/03/30 03:35:26;;;;;;;7.13;3.97;;;11.50;99.90;;;;;;6334046;22;20015;-78
2023/03/30 03:37:52;;;;;;;6.10;3.53;;;11.50;99.90;;;;;;6333720;22;20046;-79
2023/03/30 03:40:18;;;;;;;11.43;4.18;;;11.50;99.90;;;;;;6305627;22;20022;-78
2023/03/30 03:42:44;;;;;;;6.32;4.18;;;11.60;99.90;;;;;;6305828;22;20438;-77
2023/03/30 03:45:10;;;;;;;4.68;2.90;;;11.60;99.90;;;;;;6305507;22;20022;-78
2023/03/30 03:47:35;;;;;;;8.48;3.03;;;11.60;99.90;;;;;;6333988;22;20018;-78
2023/03/30 03:50:05;;;;;;;7.43;3.20;;;11.70;99.90;;;;;;6305797;22;20083;-78
2023/03/30 03:52:31;;;;;;;5.70;3.20;;;11.70;99.90;;;;;;6305600;22;20112;-77
2023/03/30 03:54:57;;;;;;;9.48;3.15;;;11.70;99.90;;;;;;6306141;22;20046;-78
2023/03/30 03:57:23;;;;;;;8.75;2.80;;;11.70;99.90;;;;;;6305730;22;20021;-77
2023/03/30 03:59:50;;;;;;;8.20;3.30;;;11.80;99.90;;;;;;6333710;22;20374;-78
2023/03/30 04:02:16;;;;;;;5.22;3.40;;;11.80;99.90;;;;;;6305570;22;20051;-78
2023/03/30 04:04:41;;;;;;;6.15;3.30;;;11.90;99.90;;;;;;6334515;22;20018;-78
2023/03/30 04:07:07;;;;;;;7.47;3.38;;;11.90;99.90;;;;;;6306727;22;20048;-78
2023/03/30 04:09:33;;;;;;;5.18;3.50;;;11.90;99.90;;;;;;6333662;22;20354;-77
2023/03/30 04:11:59;;;;;;;4.65;2.90;;;11.90;99.90;;;;;;6333282;22;20015;-78
2023/03/30 04:14:24;;;;;;;11.52;4.25;;;11.90;99.90;;;;;;6332329;22;20007;-78
2023/03/30 04:16:50;;;;;;;5.80;3.20;;;11.90;99.90;;;;;;6333301;22;20433;-79
2023/03/30 04:19:16;;;;;;;8.68;4.10;;;11.90;99.90;;;;;;6332868;22;20172;-78
2023/03/30 04:21:45;;;;;;;6.40;3.10;;;11.90;99.90;;;;;;6333014;22;20477;-78
2023/03/30 04:24:12;;;;;;;6.40;3.22;;;11.90;99.90;;;;;;6333084;22;20018;-78
2023/03/30 04:26:40;;;;;;;8.00;3.25;;;11.90;99.90;;;;;;6304922;22;20286;-78
2023/03/30 04:29:07;;;;;;;5.15;3.10;;;11.90;99.90;;;;;;6333069;22;20033;-78
2023/03/30 04:31:37;;;;;;;6.75;3.35;;;11.90;99.90;;;;;;6333037;22;20023;-78
2023/03/30 04:34:03;;;;;;;8.38;3.25;;;11.90;99.90;;;;;;6333103;22;20011;-78
2023/03/30 04:36:29;;;;;;;7.32;3.58;;;11.90;99.90;;;;;;6332560;22;20011;-78
2023/03/30 04:38:59;;;;;;;7.95;3.47;;;11.90;99.90;;;;;;6332914;22;20533;-77
2023/03/30 04:41:34;;;;;;;5.18;3.13;;;11.90;99.90;;;;;;6304771;22;20054;-78
2023/03/30 04:44:05;;;;;;;6.85;3.40;;;11.90;99.90;;;;;;6304803;22;20109;-78
2023/03/30 04:46:31;;;;;;;7.22;3.17;;;11.80;99.90;;;;;;6289304;22;20509;-77
2023/03/30 04:48:57;;;;;;;9.45;3.35;;;11.80;99.90;;;;;;6299922;22;20026;-78
2023/03/30 04:51:23;;;;;;;4.55;3.10;;;11.80;99.90;;;;;;6301639;22;20453;-77
2023/03/30 04:53:49;;;;;;;7.13;3.58;;;11.80;99.90;;;;;;6302118;22;20080;-78
2023/03/30 04:56:15;;;;;;;4.95;3.20;;;11.80;99.90;;;;;;6299904;22;20011;-78
2023/03/30 04:58:41;;;;;;;8.30;2.80;;;11.80;99.90;;;;;;6299598;22;20068;-78
2023/03/30 05:01:07;;;;;;;6.32;3.10;;;11.90;99.90;;;;;;6302054;22;20026;-77
2023/03/30 05:03:33;;;;;;;8.88;3.22;;;11.80;99.90;;;;;;6301795;22;20040;-78
2023/03/30 05:05:59;;;;;;;5.80;3.00;;;11.90;99.90;;;;;;6301654;22;20015;-77
2023/03/30 05:08:25;;;;;;;14.25;4.22;;;11.80;99.90;;;;;;6299786;22;20025;-76
2023/03/30 05:10:51;;;;;;;5.47;3.50;;;11.80;99.90;;;;;;6299356;22;20751;-70
2023/03/30 05:13:17;;;;;;;4.93;2.97;;;11.80;99.90;;;;;;6301339;22;20075;-78
2023/03/30 05:15:42;;;;;;;5.63;3.20;;;11.80;99.90;;;;;;6301925;22;20039;-76
2023/03/30 05:18:08;;;;;;;6.80;2.78;;;11.80;99.90;;;;;;6299614;22;20135;-76
2023/03/30 05:20:34;;;;;;;7.93;3.00;;;11.90;99.90;;;;;;6299616;22;20026;-75
2023/03/30 05:23:00;;;;;;;5.45;3.05;;;11.80;99.90;;;;;;6299838;22;20015;-75
2023/03/30 05:25:26;;;;;;;4.35;3.10;;;11.90;99.90;;;;;;6300011;22;20103;-76
2023/03/30 05:27:51;;;;;;;9.15;4.15;;;11.90;99.90;;;;;;6302049;22;20618;-77
2023/03/30 05:30:17;;;;;;;5.35;2.83;;;11.90;99.90;;;;;;6300268;22;20022;-76
2023/03/30 05:32:43;;;;;;;5.78;2.83;;;11.90;99.90;;;;;;6301489;22;20454;-76
2023/03/30 05:35:10;;;;;;;3.17;2.60;;;11.90;99.90;;;;;;6301253;22;20019;-77
2023/03/30 05:37:36;;;;;;;6.35;2.75;;;11.90;99.90;;;;;;6299388;22;20015;-77
2023/03/30 05:40:07;;;;;;;7.03;3.53;;;11.90;99.90;;;;;;6301205;22;20009;-77
2023/03/30 05:42:32;;;;;;;7.18;2.72;;;11.90;99.90;;;;;;6301513;22;20064;-78
2023/03/30 05:44:58;;;;;;;5.80;2.92;;;11.90;99.90;;;;;;6299457;22;20026;-78
2023/03/30 05:47:24;;;;;;;4.35;2.50;;;12.00;99.90;;;;;;6298935;22;20322;-78
2023/03/30 05:49:49;;;;;;;5.40;2.78;;;12.00;99.90;;;;;;6299066;22;20029;-70
2023/03/30 05:52:15;;;;;;;7.70;2.63;;;12.00;99.90;;;;;;6301239;22;20022;-76
2023/03/30 05:54:41;;;;;;;5.53;2.70;;;12.10;99.90;;;;;;6301213;22;20101;-77
2023/03/30 05:57:06;;;;;;;4.10;2.88;;;12.10;99.90;;;;;;6300855;22;20126;-77
2023/03/30 05:59:32;;;;;;;7.50;2.80;;;12.00;99.90;;;;;;6301110;22;20098;-75
2023/03/30 06:01:59;;;;;;;5.13;2.78;;;12.00;99.90;;;;;;6301366;22;20068;-75
2023/03/30 06:04:26;;;;;;;6.00;2.40;;;12.10;99.90;;;;;;6298938;22;20409;-76
2023/03/30 06:06:52;;;;;;;4.45;2.58;;;12.10;99.90;;;;;;6301478;22;20064;-77
2023/03/30 06:09:18;;;;;;;4.43;2.53;;;12.10;99.90;;;;;;6302535;22;20011;-76
2023/03/30 06:11:44;;;;;;;8.23;2.20;;;12.10;99.90;;;;;;6299434;22;20033;-71
2023/03/30 06:14:10;;;;;;;4.53;2.60;;;12.20;99.90;;;;;;6301617;22;20007;-73
2023/03/30 06:16:36;;;;;;;2.80;2.33;;;12.30;99.90;;;;;;6301027;22;20296;-74
2023/03/30 06:19:01;;;;;;;9.32;2.60;;;12.40;99.90;;;;;;6300865;22;20477;-72
2023/03/30 06:21:28;;;;;;;8.85;2.78;;;12.40;99.90;;;;;;6301338;22;20022;-72
2023/03/30 06:23:53;;;;;;;7.85;3.05;;;12.40;99.90;;;;;;6299180;22;20034;-72
2023/03/30 06:26:19;;;;;;;8.23;2.60;;;12.40;99.90;;;;;;6298655;22;20019;-74
2023/03/30 06:28:45;;;;;;;8.45;3.28;;;12.40;99.90;;;;;;6301187;22;20582;-74
2023/03/30 06:31:11;;;;;;;3.22;2.53;;;12.30;99.90;;;;;;6300252;22;20019;-74
2023/03/30 06:33:37;;;;;;;6.72;2.33;;;12.30;99.90;;;;;;6298263;22;20520;-73
2023/03/30 06:36:03;;;;;;;6.05;2.30;;;12.40;99.90;;;;;;6299140;22;20077;-74
2023/03/30 06:38:29;;;;;;;7.22;3.00;;;12.30;99.90;;;;;;6300804;22;20015;-72
2023/03/30 06:40:55;;;;;;;7.30;2.30;;;12.40;99.90;;;;;;6298964;22;20049;-74
2023/03/30 06:43:25;;;;;;;8.63;2.40;;;12.40;99.90;;;;;;6298455;22;20094;-77
2023/03/30 06:45:53;;;;;;;4.22;2.35;;;12.40;99.90;;;;;;6305546;22;20042;-74
2023/03/30 06:48:21;;;;;;;8.38;2.85;;;12.50;99.90;;;;;;6303682;22;20022;-80
2023/03/30 06:50:48;;;;;;;9.25;2.60;;;12.40;99.90;;;;;;6304359;22;20023;-79
2023/03/30 06:53:14;;;;;;;3.97;2.47;;;12.40;99.90;;;;;;6332638;22;20023;-74
2023/03/30 06:55:40;;;;;;;10.75;2.88;;;12.50;99.90;;;;;;6333111;22;20082;-84
2023/03/30 06:58:06;;;;;;;4.40;2.10;;;12.50;99.90;;;;;;6332416;22;20570;-80
2023/03/30 07:00:32;;;;;;;5.15;2.22;;;12.50;99.90;;;;;;6332530;22;20023;-80
2023/03/30 07:02:58;;;;;;;5.28;2.17;;;12.50;99.90;;;;;;6304225;22;20022;-80
2023/03/30 07:05:23;;;;;;;7.25;2.50;;;12.50;99.90;;;;;;6333016;22;20338;-81
2023/03/30 07:07:53;;;;;;;10.50;2.60;;;12.50;99.90;;;;;;6304683;22;20448;-80
2023/03/30 07:10:19;;;;;;;7.50;2.25;;;12.50;99.90;;;;;;6333066;22;20042;-80
2023/03/30 07:12:45;;;;;;;7.25;2.92;;;12.50;99.90;;;;;;6332535;22;20011;-81
2023/03/30 07:15:12;;;;;;;5.07;2.40;;;12.50;99.90;;;;;;6304854;22;20022;-79
2023/03/30 07:17:39;;;;;;;9.13;2.28;;;12.50;99.90;;;;;;6304860;22;20011;-81
2023/03/30 07:20:07;;;;;;;5.32;2.05;;;12.50;99.90;;;;;;6332781;22;20014;-79
2023/03/30 07:22:33;;;;;;;7.10;3.13;;;12.50;99.90;;;;;;6304350;22;20341;-78
2023/03/30 07:24:59;;;;;;;5.00;2.38;;;12.50;99.90;;;;;;6304668;22;20014;-79
2023/03/30 07:27:26;;;;;;;8.45;2.97;;;12.50;99.90;;;;;;6333121;22;20286;-81
2023/03/30 07:29:52;;;;;;;6.70;2.20;;;12.50;99.90;;;;;;6304571;22;20103;-80
2023/03/30 07:32:18;;;;;;;9.60;3.22;;;12.50;99.90;;;;;;6332012;22;20019;-79
2023/03/30 07:34:45;;;;;;;13.20;3.60;;;12.50;99.90;;;;;;6332573;22;20018;-80
2023/03/30 07:37:11;;;;;;;12.07;2.35;;;12.50;99.90;;;;;;6332632;22;20101;-80
2023/03/30 07:39:37;;;;;;;8.75;2.65;;;12.50;99.90;;;;;;6332444;22;20441;-81
2023/03/30 07:42:03;;;;;;;18.95;3.40;;;12.50;99.90;;;;;;6332847;22;20096;-81
2023/03/30 07:44:29;;;;;;;12.40;2.92;;;12.50;99.90;;;;;;6278404;22;20018;-80
2023/03/30 07:46:56;;;;;;;16.15;4.05;;;12.50;99.90;;;;;;6299361;22;20030;-81
2023/03/30 07:49:22;;;;;;;17.17;3.20;;;12.50;99.90;;;;;;6301288;22;20050;-80
2023/03/30 07:51:48;;;;;;;12.65;4.85;;;12.50;99.90;;;;;;6299067;22;20359;-80
2023/03/30 07:54:14;;;;;;;10.60;2.30;;;12.60;99.90;;;;;;6302233;22;20090;-80
2023/03/30 07:56:41;;;;;;;11.02;2.50;;;12.60;99.90;;;;;;6299779;22;20019;-81
2023/03/30 07:59:07;;;;;;;10.77;3.30;;;12.60;99.90;;;;;;6303447;22;20011;-81
2023/03/30 08:01:33;;;;;;;9.95;3.25;;;12.60;99.90;;;;;;6301147;22;20055;-81
2023/03/30 08:03:59;;;;;;;12.73;2.42;;;12.60;99.90;;;;;;6303486;22;20499;-81
2023/03/30 08:06:26;;;;;;;8.27;2.30;;;12.60;99.90;;;;;;6303628;22;20011;-81
2023/03/30 08:08:51;;;;;;;8.98;2.95;;;12.60;99.90;;;;;;6303594;22;20094;-82
2023/03/30 08:11:18;;;;;;;13.50;3.17;;;12.60;99.90;;;;;;6301693;22;20051;-82
2023/03/30 08:13:44;;;;;;;10.90;3.30;;;12.60;99.90;;;;;;6302796;22;20026;-78
2023/03/30 08:16:10;;;;;;;11.38;2.85;;;12.60;99.90;;;;;;6301259;22;20015;-80
2023/03/30 08:18:36;;;;;;;19.40;3.97;;;12.50;99.90;;;;;;6301317;22;20384;-80
2023/03/30 08:21:03;;;;;;;12.45;3.60;;;12.60;99.90;;;;;;6301113;22;20160;-80
2023/03/30 08:23:29;;;;;;;9.13;3.80;;;12.50;99.90;;;;;;6303120;22;20022;-81
2023/03/30 08:25:59;;;;;;;16.65;2.83;;;12.60;99.90;;;;;;6303070;22;20038;-81
2023/03/30 08:28:25;;;;;;;11.57;3.10;;;12.60;99.90;;;;;;6300310;22;20047;-81
2023/03/30 08:30:52;;;;;;;13.52;3.05;;;12.60;99.90;;;;;;6301217;22;20121;-79
2023/03/30 08:33:17;;;;;;;13.48;3.25;;;12.60;99.90;;;;;;6303562;22;20015;-80
2023/03/30 08:35:45;;;;;;;12.30;3.10;;;12.60;99.90;;;;;;6302535;22;20346;-79
2023/03/30 08:38:16;;;;;;;15.25;3.38;;;12.60;99.90;;;;;;6301188;22;20022;-81
2023/03/30 08:40:49;;;;;;;12.48;3.05;;;12.60;99.90;;;;;;6300844;22;20022;-77
2023/03/30 08:43:42;;;;;;;18.42;3.60;;;12.50;99.90;;;;;;6300968;22;20023;-80
2023/03/30 08:46:14;;;;;;;17.00;3.25;;;12.60;99.90;;;;;;6299939;22;20027;-79
2023/03/30 08:48:41;;;;;;;17.10;3.92;;;12.50;99.90;;;;;;6302799;22;20043;-80
2023/03/30 08:51:26;;;;;;;17.63;3.30;;;12.40;99.90;;;;;;6300021;22;20435;-79
2023/03/30 08:54:05;;;;;;;15.05;4.25;;;12.40;99.90;;;;;;6303317;22;20043;-80
2023/03/30 08:56:41;;;;;;;13.65;2.95;;;12.30;99.90;;;;;;6301059;22;20022;-80
2023/03/30 08:59:36;;;;;;;21.55;3.95;;;12.30;99.90;;;;;;6300874;22;20026;-80
2023/03/30 09:02:23;;;;;;;16.58;4.90;;;12.30;99.90;;;;;;6301079;22;20030;-81
2023/03/30 09:05:00;;;;;;;13.20;2.92;;;12.30;99.90;;;;;;6300888;22;20350;-80
2023/03/30 09:07:50;;;;;;;13.15;3.60;;;12.40;99.90;;;;;;6300810;22;20046;-81
2023/03/30 09:10:18;;;;;;;15.63;2.75;;;12.50;99.90;;;;;;6299586;22;20022;-78
2023/03/30 09:12:55;;;;;;;29.50;3.95;;;12.60;99.90;;;;;;6301550;22;20086;-79
2023/03/30 09:15:47;;;;;;;18.02;3.78;;;12.60;99.90;;;;;;6274972;22;20334;-85
2023/03/30 09:18:18;;;;;;;20.40;5.00;;;12.70;99.90;;;;;;6292105;22;20015;-85
2023/03/30 09:20:46;;;;;;;13.70;3.17;;;12.70;99.90;;;;;;6301812;22;20054;-85
2023/03/30 09:23:17;;;;;;;23.67;4.25;;;12.80;99.90;;;;;;6300942;22;20019;-84
2023/03/30 09:25:52;;;;;;;23.55;4.60;;;12.80;99.90;;;;;;6301162;22;20019;-86
2023/03/30 09:28:21;;;;;;;22.25;3.38;;;12.90;99.90;;;;;;6300738;22;20026;-86
2023/03/30 09:30:55;;;;;;;19.25;3.90;;;12.90;99.90;;;;;;6300050;22;20098;-85
2023/03/30 09:33:38;;;;;;;29.95;4.18;;;12.90;99.90;;;;;;6300129;22;20604;-84
2023/03/30 09:36:15;;;;;;;15.05;3.65;;;12.90;99.90;;;;;;6302251;22;20026;-86
2023/03/30 09:38:42;;;;;;;21.40;4.90;;;12.90;99.90;;;;;;6303591;22;20015;-83
2023/03/30 09:41:16;;;;;;;13.02;3.00;;;12.80;99.90;;;;;;6300797;22;20018;-84
2023/03/30 09:43:45;;;;;;;15.32;3.13;;;12.90;99.90;;;;;;6276926;22;20014;-88
2023/03/30 09:46:12;;;;;;;13.70;4.22;;;12.90;99.90;;;;;;6301769;22;20022;-86
2023/03/30 09:48:39;;;;;;;12.63;3.65;;;12.80;99.90;;;;;;6303062;22;20015;-86
2023/03/30 09:51:14;;;;;;;11.60;2.55;;;12.80;99.90;;;;;;6302851;22;20011;-89
2023/03/30 09:53:43;;;;;;;18.52;3.05;;;12.80;99.90;;;;;;6301179;22;20299;-89
2023/03/30 09:56:33;;;;;;;18.35;3.70;;;12.80;99.90;;;;;;6302052;22;20019;-88
2023/03/30 09:59:29;;;;;;;18.23;2.90;;;12.90;99.90;;;;;;6303853;22;20019;-87
2023/03/30 10:02:17;;;;;;;12.05;3.38;;;13.00;99.90;;;;;;6298705;22;20261;-87
2023/03/30 10:04:52;;;;;;;13.95;3.13;;;13.00;99.90;;;;;;6301425;22;20026;-88
2023/03/30 10:07:39;;;;;;;13.90;2.30;;;13.10;99.90;;;;;;6303147;22;20396;-75
2023/03/30 10:10:24;;;;;;;14.98;3.00;;;13.20;99.90;;;;;;6299686;22;20042;-77
2023/03/30 10:12:53;;;;;;;21.00;3.20;;;13.30;99.90;;;;;;6300403;22;20015;-88
2023/03/30 10:15:22;;;;;;;20.08;3.75;;;13.30;99.90;;;;;;6302331;22;20034;-87
2023/03/30 10:17:51;;;;;;;13.00;2.25;;;13.40;99.90;;;;;;6302652;22;20051;-88
2023/03/30 10:20:23;;;;;;;21.23;5.07;;;13.30;99.90;;;;;;6303282;22;20011;-77
2023/03/30 10:23:12;;;;;;;17.30;3.70;;;13.30;99.90;;;;;;6298964;22;20019;-77
2023/03/30 10:25:41;;;;;;;15.60;2.60;;;13.30;99.90;;;;;;6289563;22;20019;-77
2023/03/30 10:28:20;;;;;;;11.45;2.25;;;13.20;99.90;;;;;;6302439;22;20019;-82
2023/03/30 10:30:58;;;;;;;8.38;1.85;;;13.20;99.90;;;;;;6301468;22;20121;-83
2023/03/30 10:33:26;;;;;;;9.82;2.50;;;13.10;99.90;;;;;;6301744;22;20015;-83
2023/03/30 10:35:55;;;;;;;10.07;2.15;;;13.30;99.90;;;;;;6302353;22;20061;-84
2023/03/30 10:38:22;;;;;;;11.88;2.83;;;13.30;99.90;;;;;;6301751;22;20098;-85
2023/03/30 10:40:54;;;;;;;18.75;2.50;;;13.30;99.90;;;;;;6300132;22;20110;-84
2023/03/30 10:43:24;;;;;;;;;;;13.40;99.90;;;;;;6300265;22;20019;-85
2023/03/30 10:45:52;;;;;;;16.02;3.75;;;13.40;99.90;;;;;;6299447;22;19972;-85
2023/03/30 10:48:33;;;;;;;12.90;2.10;;;13.40;99.90;;;;;;6301504;22;20425;-85
2023/03/30 10:51:07;;;;;;;14.02;3.25;;;13.50;99.90;;;;;;6299370;22;20022;-85
2023/03/30 10:53:40;;;;;;;10.10;3.67;;;13.50;99.90;;;;;;6301939;22;20446;-85
2023/03/30 10:56:38;;;;;;;11.60;2.00;;;13.50;99.90;;;;;;6302037;22;20415;-86
2023/03/30 10:59:38;;;;;;;11.13;2.33;;;13.60;99.90;;;;;;6300700;22;20082;-86
2023/03/30 11:02:47;;;;;;;8.35;2.60;;;13.70;99.90;;;;;;6299446;22;20015;-88
2023/03/30 11:05:28;;;;;;;12.07;2.58;;;13.70;99.90;;;;;;6267739;22;20051;-86
2023/03/30 11:08:06;;;;;;;7.85;2.15;;;13.80;99.90;;;;;;6297477;22;20019;-86
2023/03/30 11:10:40;;;;;;;13.80;2.33;;;13.90;99.90;;;;;;6301359;22;20715;-86
2023/03/30 11:13:33;;;;;;;11.65;2.35;;;13.90;99.90;;;;;;6300058;22;20033;-88
2023/03/30 11:16:01;;;;;;;;;;;13.90;99.90;;;;;;6302517;22;20680;-90
2023/03/30 11:18:41;;;;;;;10.20;2.60;;;14.00;99.90;;;;;;6303703;22;20359;-91
2023/03/30 11:21:37;;;;;;;9.23;1.80;;;14.00;99.90;;;;;;6305642;22;20027;-89
2023/03/30 11:24:10;;;;;;;11.68;2.22;;;14.00;99.90;;;;;;6303188;22;20045;-86
2023/03/30 11:26:46;;;;;;;12.75;2.95;;;14.00;99.90;;;;;;6302836;22;20115;-84
2023/03/30 11:29:26;;;;;;;11.02;1.95;;;14.10;99.90;;;;;;6301289;22;20344;-83
2023/03/30 11:32:10;;;;;;;15.10;2.17;;;14.20;99.90;;;;;;6301634;22;20066;-88
2023/03/30 11:34:53;;;;;;;14.32;3.10;;;14.20;99.90;;;;;;6302118;22;20098;-87
2023/03/30 11:37:29;;;;;;;10.15;2.33;;;14.20;99.90;;;;;;6303148;22;20015;-87
2023/03/30 11:40:20;;;;;;;10.23;1.77;;;14.30;99.90;;;;;;6277005;22;20019;-88
2023/03/30 11:42:47;;;;;;;13.27;2.53;;;14.20;99.90;;;;;;6303482;22;20027;-87
2023/03/30 11:45:45;;;;;;;14.50;2.40;;;14.20;99.90;;;;;;6302782;22;20046;-86
2023/03/30 11:48:40;;;;;;;16.65;2.28;;;14.10;99.90;;;;;;6302464;22;20016;-88
2023/03/30 11:51:16;;;;;;;9.80;1.92;;;14.10;99.90;;;;;;6277089;22;20402;-88
2023/03/30 11:53:53;;;;;;;10.30;2.33;;;14.10;99.90;;;;;;6303503;22;20019;-87
2023/03/30 11:56:27;;;;;;;17.50;2.42;;;14.10;99.90;;;;;;6303734;22;20090;-89
2023/03/30 11:59:08;;;;;;;17.95;3.10;;;14.10;99.90;;;;;;6301144;22;20086;-88
2023/03/30 12:01:34;;;;;;;18.17;3.97;;;14.10;99.90;;;;;;6302223;22;20688;-88
2023/03/30 12:04:11;;;;;;;21.95;3.13;;;14.20;99.90;;;;;;6301682;22;20015;-88
2023/03/30 12:06:58;;;;;;;12.65;2.47;;;14.20;99.90;;;;;;6301715;22;20019;-87
2023/03/30 12:09:37;;;;;;;8.32;2.15;;;14.20;99.90;;;;;;6303366;22;20026;-87
2023/03/30 12:12:17;;;;;;;10.30;2.75;;;14.20;99.90;;;;;;6303123;22;20058;-86
2023/03/30 12:15:12;;;;;;;11.25;2.28;;;14.30;99.90;;;;;;6301105;22;20030;-87
2023/03/30 12:17:48;;;;;;;17.90;2.90;;;14.40;99.90;;;;;;6293271;22;20015;-87
2023/03/30 12:20:36;;;;;;;16.35;3.63;;;14.30;99.90;;;;;;6300908;22;20026;-87
2023/03/30 12:23:28;;;;;;;15.02;2.22;;;14.30;99.90;;;;;;6301967;22;20023;-87
2023/03/30 12:26:23;;;;;;;14.77;3.10;;;14.30;99.90;;;;;;6305229;22;20015;-88
2023/03/30 12:29:02;;;;;;;19.63;3.67;;;14.20;99.90;;;;;;6302190;22;20021;-88
2023/03/30 12:32:01;;;;;;;15.40;2.25;;;14.20;99.90;;;;;;6302139;22;20061;-88
2023/03/30 12:34:35;;;;;;;12.63;2.33;;;14.20;99.90;;;;;;6303469;22;20015;-88
2023/03/30 12:37:03;;;;;;;15.05;2.70;;;14.20;99.90;;;;;;6304730;22;20038;-88
2023/03/30 12:39:34;;;;;;;21.02;3.83;;;14.20;99.90;;;;;;6306399;22;20019;-88
2023/03/30 12:42:08;;;;;;;7.43;2.38;;;14.20;99.90;;;;;;6305790;22;20310;-89
2023/03/30 12:44:46;;;;;;;13.45;2.72;;;14.20;99.90;;;;;;6301581;22;20030;-89
2023/03/30 12:47:33;;;;;;;14.50;2.83;;;14.30;99.90;;;;;;6302716;22;20638;-88
2023/03/30 12:50:27;;;;;;;16.55;4.18;;;14.20;99.90;;;;;;6303722;22;20027;-89
2023/03/30 12:53:11;;;;;;;14.05;3.90;;;14.20;99.90;;;;;;6303513;22;20019;-89
2023/03/30 12:55:42;;;;;;;14.02;2.35;;;14.20;99.90;;;;;;6303659;22;20015;-87
2023/03/30 12:58:10;;;;;;;16.27;2.78;;;14.30;99.90;;;;;;6304014;22;20011;-88
2023/03/30 13:01:08;;;;;;;9.45;2.20;;;14.30;99.90;;;;;;6304907;22;20019;-89
2023/03/30 13:03:51;;;;;;;15.00;2.70;;;14.40;99.90;;;;;;6305169;22;20022;-88
2023/03/30 13:06:22;;;;;;;17.17;2.72;;;14.50;99.90;;;;;;6306311;22;20054;-88
2023/03/30 13:09:11;;;;;;;23.77;4.23;;;14.60;99.90;;;;;;6306136;22;20015;-88
2023/03/30 13:11:52;;;;;;;19.35;4.85;;;14.60;99.90;;;;;;6307037;22;20711;-89